sensor_id;sensor_type;location;lat;lon;timestamp;P1;durP1;ratioP1;P2;durP2;ratioP2
2023;SDS011;1016;48.770;9.154;2022-07-05T00:00:41;12.60;;;2.40;;
2023;SDS011;1016;48.770;9.154;2022-07-05T00:03:07;13.60;;;2.40;;
2023;SDS011;1016;48.770;9.154;2022-07-05T00:05:33;12.90;;;2.50;;
2023;SDS011;1016;48.770;9.154;2022-07-05T00:07:59;15.52;;;2.70;;
2023;SDS011;1016;48.770;9.154;2022-07-05T00:10:25;13.00;;;2.60;;
2023;SDS011;1016;48.770;9.154;2022-07-05T00:12:50;13.90;;;2.60;;
2023;SDS011;1016;48.770;9.154;2022-07-05T00:15:16;12.90;;;2.50;;
2023;SDS011;1016;48.770;9.154;2022-07-05T00:17:42;14.00;;;2.50;;
2023;SDS011;1016;48.770;9.154;2022-07-05T00:20:08;13.40;;;2.40;;
2023;SDS011;1016;48.770;9.154;2022-07-05T00:22:34;13.63;;;2.60;;
2023;SDS011;1016;48.770;9.154;2022-07-05T00:24:59;13.30;;;2.40;;
2023;SDS011;1016;48.770;9.154;2022-07-05T00:27:25;14.20;;;2.60;;
2023;SDS011;1016;48.770;9.154;2022-07-05T00:29:50;12.70;;;2.50;;
2023;SDS011;1016;48.770;9.154;2022-07-05T00:32:16;13.80;;;2.63;;
2023;SDS011;1016;48.770;9.154;2022-07-05T00:34:41;13.82;;;2.60;;
2023;SDS011;1016;48.770;9.154;2022-07-05T00:37:07;14.50;;;2.70;;
2023;SDS011;1016;48.770;9.154;2022-07-05T00:39:32;12.63;;;2.50;;
2023;SDS011;1016;48.770;9.154;2022-07-05T00:41:58;13.85;;;2.70;;
2023;SDS011;1016;48.770;9.154;2022-07-05T00:44:36;14.25;;;2.70;;
2023;SDS011;1016;48.770;9.154;2022-07-05T00:47:03;13.52;;;2.50;;
2023;SDS011;1016;48.770;9.154;2022-07-05T00:49:30;13.10;;;2.50;;
2023;SDS011;1016;48.770;9.154;2022-07-05T00:51:56;13.05;;;2.35;;
2023;SDS011;1016;48.770;9.154;2022-07-05T00:54:23;13.40;;;2.35;;
2023;SDS011;1016;48.770;9.154;2022-07-05T00:56:48;13.00;;;2.40;;
2023;SDS011;1016;48.770;9.154;2022-07-05T00:59:14;12.65;;;2.40;;
2023;SDS011;1016;48.770;9.154;2022-07-05T01:01:40;13.00;;;2.40;;
2023;SDS011;1016;48.770;9.154;2022-07-05T01:04:06;13.30;;;2.20;;
2023;SDS011;1016;48.770;9.154;2022-07-05T01:06:32;13.50;;;2.50;;
2023;SDS011;1016;48.770;9.154;2022-07-05T01:08:58;13.85;;;2.65;;
2023;SDS011;1016;48.770;9.154;2022-07-05T01:11:24;14.17;;;2.80;;
2023;SDS011;1016;48.770;9.154;2022-07-05T01:13:50;14.37;;;2.40;;
2023;SDS011;1016;48.770;9.154;2022-07-05T01:16:16;14.52;;;2.50;;
2023;SDS011;1016;48.770;9.154;2022-07-05T01:18:43;12.87;;;2.20;;
2023;SDS011;1016;48.770;9.154;2022-07-05T01:21:09;13.20;;;2.40;;
2023;SDS011;1016;48.770;9.154;2022-07-05T01:23:38;13.02;;;2.30;;
2023;SDS011;1016;48.770;9.154;2022-07-05T01:26:04;13.30;;;2.40;;
2023;SDS011;1016;48.770;9.154;2022-07-05T01:28:33;13.38;;;2.40;;
2023;SDS011;1016;48.770;9.154;2022-07-05T01:31:00;13.10;;;2.20;;
2023;SDS011;1016;48.770;9.154;2022-07-05T01:33:29;13.85;;;2.30;;
2023;SDS011;1016;48.770;9.154;2022-07-05T01:35:56;13.05;;;2.40;;
2023;SDS011;1016;48.770;9.154;2022-07-05T01:38:22;13.10;;;2.55;;
2023;SDS011;1016;48.770;9.154;2022-07-05T01:40:48;12.80;;;2.47;;
2023;SDS011;1016;48.770;9.154;2022-07-05T01:43:20;12.93;;;2.30;;
2023;SDS011;1016;48.770;9.154;2022-07-05T01:45:48;12.90;;;2.50;;
2023;SDS011;1016;48.770;9.154;2022-07-05T01:48:14;14.20;;;2.40;;
2023;SDS011;1016;48.770;9.154;2022-07-05T01:50:51;14.87;;;2.47;;
2023;SDS011;1016;48.770;9.154;2022-07-05T01:53:19;12.88;;;2.40;;
2023;SDS011;1016;48.770;9.154;2022-07-05T01:55:53;12.63;;;2.50;;
2023;SDS011;1016;48.770;9.154;2022-07-05T01:58:21;13.60;;;2.45;;
2023;SDS011;1016;48.770;9.154;2022-07-05T02:00:50;13.00;;;2.60;;
2023;SDS011;1016;48.770;9.154;2022-07-05T02:03:17;13.55;;;2.45;;
2023;SDS011;1016;48.770;9.154;2022-07-05T02:05:44;14.68;;;2.45;;
2023;SDS011;1016;48.770;9.154;2022-07-05T02:08:11;13.70;;;2.60;;
2023;SDS011;1016;48.770;9.154;2022-07-05T02:10:37;13.35;;;2.25;;
2023;SDS011;1016;48.770;9.154;2022-07-05T02:13:04;13.60;;;2.30;;
2023;SDS011;1016;48.770;9.154;2022-07-05T02:15:33;15.38;;;2.50;;
2023;SDS011;1016;48.770;9.154;2022-07-05T02:18:01;13.53;;;2.23;;
2023;SDS011;1016;48.770;9.154;2022-07-05T02:20:28;12.90;;;2.20;;
2023;SDS011;1016;48.770;9.154;2022-07-05T02:22:55;13.60;;;2.40;;
2023;SDS011;1016;48.770;9.154;2022-07-05T02:25:20;13.53;;;2.30;;
2023;SDS011;1016;48.770;9.154;2022-07-05T02:27:46;12.68;;;2.20;;
2023;SDS011;1016;48.770;9.154;2022-07-05T02:30:12;13.15;;;2.20;;
2023;SDS011;1016;48.770;9.154;2022-07-05T02:32:38;12.10;;;2.00;;
2023;SDS011;1016;48.770;9.154;2022-07-05T02:35:04;12.93;;;2.30;;
2023;SDS011;1016;48.770;9.154;2022-07-05T02:37:31;12.97;;;2.27;;
2023;SDS011;1016;48.770;9.154;2022-07-05T02:39:57;13.98;;;2.30;;
2023;SDS011;1016;48.770;9.154;2022-07-05T02:42:23;12.93;;;2.10;;
2023;SDS011;1016;48.770;9.154;2022-07-05T02:44:48;13.30;;;2.40;;
2023;SDS011;1016;48.770;9.154;2022-07-05T02:47:14;13.33;;;2.30;;
2023;SDS011;1016;48.770;9.154;2022-07-05T02:49:39;13.15;;;2.30;;
2023;SDS011;1016;48.770;9.154;2022-07-05T02:52:05;12.80;;;2.40;;
2023;SDS011;1016;48.770;9.154;2022-07-05T02:54:31;13.90;;;2.60;;
2023;SDS011;1016;48.770;9.154;2022-07-05T02:56:58;12.37;;;2.30;;
2023;SDS011;1016;48.770;9.154;2022-07-05T02:59:24;13.68;;;2.50;;
2023;SDS011;1016;48.770;9.154;2022-07-05T03:01:49;12.90;;;2.50;;
2023;SDS011;1016;48.770;9.154;2022-07-05T03:04:15;14.32;;;2.38;;
2023;SDS011;1016;48.770;9.154;2022-07-05T03:06:41;13.20;;;2.67;;
2023;SDS011;1016;48.770;9.154;2022-07-05T03:09:06;13.77;;;2.50;;
2023;SDS011;1016;48.770;9.154;2022-07-05T03:11:32;13.20;;;2.40;;
2023;SDS011;1016;48.770;9.154;2022-07-05T03:13:57;12.90;;;2.60;;
2023;SDS011;1016;48.770;9.154;2022-07-05T03:16:23;13.13;;;2.55;;
2023;SDS011;1016;48.770;9.154;2022-07-05T03:18:49;13.90;;;2.40;;
2023;SDS011;1016;48.770;9.154;2022-07-05T03:21:15;13.10;;;2.33;;
2023;SDS011;1016;48.770;9.154;2022-07-05T03:23:42;14.90;;;2.60;;
2023;SDS011;1016;48.770;9.154;2022-07-05T03:26:07;13.40;;;2.50;;
2023;SDS011;1016;48.770;9.154;2022-07-05T03:28:33;12.70;;;2.30;;
2023;SDS011;1016;48.770;9.154;2022-07-05T03:30:58;14.10;;;2.40;;
2023;SDS011;1016;48.770;9.154;2022-07-05T03:33:24;13.65;;;2.30;;
2023;SDS011;1016;48.770;9.154;2022-07-05T03:35:50;13.60;;;2.20;;
2023;SDS011;1016;48.770;9.154;2022-07-05T03:38:15;13.32;;;2.30;;
2023;SDS011;1016;48.770;9.154;2022-07-05T03:40:41;14.80;;;2.38;;
2023;SDS011;1016;48.770;9.154;2022-07-05T03:43:07;12.77;;;2.20;;
2023;SDS011;1016;48.770;9.154;2022-07-05T03:45:33;12.63;;;2.20;;
2023;SDS011;1016;48.770;9.154;2022-07-05T03:47:59;12.40;;;2.40;;
2023;SDS011;1016;48.770;9.154;2022-07-05T03:50:25;13.83;;;2.20;;
2023;SDS011;1016;48.770;9.154;2022-07-05T03:52:51;12.45;;;2.20;;
2023;SDS011;1016;48.770;9.154;2022-07-05T03:55:17;14.83;;;2.20;;
2023;SDS011;1016;48.770;9.154;2022-07-05T03:57:42;12.30;;;2.10;;
2023;SDS011;1016;48.770;9.154;2022-07-05T04:00:08;12.80;;;2.20;;
2023;SDS011;1016;48.770;9.154;2022-07-05T04:02:34;14.02;;;2.30;;
2023;SDS011;1016;48.770;9.154;2022-07-05T04:05:00;12.00;;;1.90;;
2023;SDS011;1016;48.770;9.154;2022-07-05T04:07:25;12.75;;;2.25;;
2023;SDS011;1016;48.770;9.154;2022-07-05T04:09:51;12.77;;;2.10;;
2023;SDS011;1016;48.770;9.154;2022-07-05T04:12:17;12.75;;;2.05;;
2023;SDS011;1016;48.770;9.154;2022-07-05T04:14:42;14.60;;;2.20;;
2023;SDS011;1016;48.770;9.154;2022-07-05T04:17:08;14.20;;;2.20;;
2023;SDS011;1016;48.770;9.154;2022-07-05T04:19:33;13.30;;;2.10;;
2023;SDS011;1016;48.770;9.154;2022-07-05T04:21:59;14.07;;;2.03;;
2023;SDS011;1016;48.770;9.154;2022-07-05T04:24:24;13.10;;;2.30;;
2023;SDS011;1016;48.770;9.154;2022-07-05T04:26:50;13.43;;;2.30;;
2023;SDS011;1016;48.770;9.154;2022-07-05T04:29:16;12.98;;;2.10;;
2023;SDS011;1016;48.770;9.154;2022-07-05T04:31:41;13.40;;;2.50;;
2023;SDS011;1016;48.770;9.154;2022-07-05T04:34:07;14.30;;;2.20;;
2023;SDS011;1016;48.770;9.154;2022-07-05T04:36:33;14.55;;;2.50;;
2023;SDS011;1016;48.770;9.154;2022-07-05T04:38:59;12.87;;;2.03;;
2023;SDS011;1016;48.770;9.154;2022-07-05T04:41:24;13.23;;;2.30;;
2023;SDS011;1016;48.770;9.154;2022-07-05T04:43:50;12.75;;;2.00;;
2023;SDS011;1016;48.770;9.154;2022-07-05T04:46:15;12.87;;;2.10;;
2023;SDS011;1016;48.770;9.154;2022-07-05T04:48:41;13.13;;;2.20;;
2023;SDS011;1016;48.770;9.154;2022-07-05T04:51:06;13.00;;;2.13;;
2023;SDS011;1016;48.770;9.154;2022-07-05T04:53:32;13.00;;;2.10;;
2023;SDS011;1016;48.770;9.154;2022-07-05T04:55:58;15.40;;;2.30;;
2023;SDS011;1016;48.770;9.154;2022-07-05T04:58:23;12.20;;;2.03;;
2023;SDS011;1016;48.770;9.154;2022-07-05T05:00:49;13.10;;;2.20;;
2023;SDS011;1016;48.770;9.154;2022-07-05T05:03:14;13.00;;;1.90;;
2023;SDS011;1016;48.770;9.154;2022-07-05T05:05:40;12.85;;;1.92;;
2023;SDS011;1016;48.770;9.154;2022-07-05T05:08:05;13.30;;;1.90;;
2023;SDS011;1016;48.770;9.154;2022-07-05T05:10:31;15.15;;;2.10;;
2023;SDS011;1016;48.770;9.154;2022-07-05T05:12:56;13.00;;;1.90;;
2023;SDS011;1016;48.770;9.154;2022-07-05T05:15:22;12.77;;;1.80;;
2023;SDS011;1016;48.770;9.154;2022-07-05T05:17:47;13.10;;;2.00;;
2023;SDS011;1016;48.770;9.154;2022-07-05T05:20:14;14.32;;;1.70;;
2023;SDS011;1016;48.770;9.154;2022-07-05T05:22:41;12.95;;;1.75;;
2023;SDS011;1016;48.770;9.154;2022-07-05T05:25:07;13.02;;;1.80;;
2023;SDS011;1016;48.770;9.154;2022-07-05T05:27:33;12.50;;;1.75;;
2023;SDS011;1016;48.770;9.154;2022-07-05T05:29:59;13.20;;;1.80;;
2023;SDS011;1016;48.770;9.154;2022-07-05T05:32:25;13.83;;;1.70;;
2023;SDS011;1016;48.770;9.154;2022-07-05T05:34:50;13.40;;;1.80;;
2023;SDS011;1016;48.770;9.154;2022-07-05T05:37:16;13.43;;;1.50;;
2023;SDS011;1016;48.770;9.154;2022-07-05T05:39:41;12.90;;;1.60;;
2023;SDS011;1016;48.770;9.154;2022-07-05T05:42:07;13.27;;;1.60;;
2023;SDS011;1016;48.770;9.154;2022-07-05T05:44:33;12.05;;;1.55;;
2023;SDS011;1016;48.770;9.154;2022-07-05T05:46:58;12.33;;;1.40;;
2023;SDS011;1016;48.770;9.154;2022-07-05T05:49:24;13.48;;;1.73;;
2023;SDS011;1016;48.770;9.154;2022-07-05T05:51:49;12.77;;;1.50;;
2023;SDS011;1016;48.770;9.154;2022-07-05T05:54:15;13.53;;;1.60;;
2023;SDS011;1016;48.770;9.154;2022-07-05T05:56:40;12.88;;;1.50;;
2023;SDS011;1016;48.770;9.154;2022-07-05T05:59:06;12.87;;;1.40;;
2023;SDS011;1016;48.770;9.154;2022-07-05T06:01:31;13.70;;;1.60;;
2023;SDS011;1016;48.770;9.154;2022-07-05T06:03:57;14.30;;;1.63;;
2023;SDS011;1016;48.770;9.154;2022-07-05T06:06:23;12.50;;;1.80;;
2023;SDS011;1016;48.770;9.154;2022-07-05T06:08:48;12.77;;;1.57;;
2023;SDS011;1016;48.770;9.154;2022-07-05T06:11:14;12.73;;;1.77;;
2023;SDS011;1016;48.770;9.154;2022-07-05T06:13:39;13.07;;;1.70;;
2023;SDS011;1016;48.770;9.154;2022-07-05T06:16:08;14.00;;;1.60;;
2023;SDS011;1016;48.770;9.154;2022-07-05T06:18:34;13.40;;;1.70;;
2023;SDS011;1016;48.770;9.154;2022-07-05T06:21:00;12.60;;;1.70;;
2023;SDS011;1016;48.770;9.154;2022-07-05T06:23:25;12.90;;;1.70;;
2023;SDS011;1016;48.770;9.154;2022-07-05T06:25:51;15.03;;;1.70;;
2023;SDS011;1016;48.770;9.154;2022-07-05T06:28:16;12.85;;;1.70;;
2023;SDS011;1016;48.770;9.154;2022-07-05T06:30:42;12.40;;;1.50;;
2023;SDS011;1016;48.770;9.154;2022-07-05T06:33:08;13.15;;;1.60;;
2023;SDS011;1016;48.770;9.154;2022-07-05T06:35:34;13.07;;;1.60;;
2023;SDS011;1016;48.770;9.154;2022-07-05T06:40:28;12.50;;;1.60;;
2023;SDS011;1016;48.770;9.154;2022-07-05T06:43:10;13.13;;;1.60;;
2023;SDS011;1016;48.770;9.154;2022-07-05T06:45:37;13.15;;;1.50;;
2023;SDS011;1016;48.770;9.154;2022-07-05T06:48:04;12.40;;;1.63;;
2023;SDS011;1016;48.770;9.154;2022-07-05T06:50:35;12.15;;;1.42;;
2023;SDS011;1016;48.770;9.154;2022-07-05T06:53:03;12.85;;;1.60;;
2023;SDS011;1016;48.770;9.154;2022-07-05T06:55:29;13.30;;;1.60;;
2023;SDS011;1016;48.770;9.154;2022-07-05T06:57:56;12.35;;;1.60;;
2023;SDS011;1016;48.770;9.154;2022-07-05T07:00:23;12.90;;;1.60;;
2023;SDS011;1016;48.770;9.154;2022-07-05T07:02:49;12.80;;;1.70;;
2023;SDS011;1016;48.770;9.154;2022-07-05T07:05:15;12.83;;;1.77;;
2023;SDS011;1016;48.770;9.154;2022-07-05T07:07:40;14.98;;;1.67;;
2023;SDS011;1016;48.770;9.154;2022-07-05T07:10:25;13.18;;;1.60;;
2023;SDS011;1016;48.770;9.154;2022-07-05T07:12:51;12.25;;;1.50;;
2023;SDS011;1016;48.770;9.154;2022-07-05T07:15:16;12.43;;;1.55;;
2023;SDS011;1016;48.770;9.154;2022-07-05T07:17:42;13.53;;;1.50;;
2023;SDS011;1016;48.770;9.154;2022-07-05T07:20:08;13.40;;;1.67;;
2023;SDS011;1016;48.770;9.154;2022-07-05T07:22:34;12.57;;;1.60;;
2023;SDS011;1016;48.770;9.154;2022-07-05T07:24:59;13.70;;;1.90;;
2023;SDS011;1016;48.770;9.154;2022-07-05T07:27:25;12.80;;;1.40;;
2023;SDS011;1016;48.770;9.154;2022-07-05T07:29:50;12.77;;;1.60;;
2023;SDS011;1016;48.770;9.154;2022-07-05T07:32:16;15.20;;;1.60;;
2023;SDS011;1016;48.770;9.154;2022-07-05T07:34:43;12.27;;;1.40;;
2023;SDS011;1016;48.770;9.154;2022-07-05T07:37:10;11.77;;;1.50;;
2023;SDS011;1016;48.770;9.154;2022-07-05T07:39:39;13.02;;;1.40;;
2023;SDS011;1016;48.770;9.154;2022-07-05T07:42:06;13.30;;;1.50;;
2023;SDS011;1016;48.770;9.154;2022-07-05T07:44:32;12.82;;;1.60;;
2023;SDS011;1016;48.770;9.154;2022-07-05T07:46:57;13.55;;;1.65;;
2023;SDS011;1016;48.770;9.154;2022-07-05T07:49:23;14.00;;;1.60;;
2023;SDS011;1016;48.770;9.154;2022-07-05T07:51:49;13.07;;;1.50;;
2023;SDS011;1016;48.770;9.154;2022-07-05T07:54:16;13.67;;;1.70;;
2023;SDS011;1016;48.770;9.154;2022-07-05T07:56:41;13.05;;;1.63;;
2023;SDS011;1016;48.770;9.154;2022-07-05T07:59:07;12.60;;;1.60;;
2023;SDS011;1016;48.770;9.154;2022-07-05T08:01:34;12.40;;;1.50;;
2023;SDS011;1016;48.770;9.154;2022-07-05T08:03:59;13.65;;;1.70;;
2023;SDS011;1016;48.770;9.154;2022-07-05T08:06:25;13.00;;;1.63;;
2023;SDS011;1016;48.770;9.154;2022-07-05T08:08:50;13.90;;;1.80;;
2023;SDS011;1016;48.770;9.154;2022-07-05T08:11:16;13.40;;;1.70;;
2023;SDS011;1016;48.770;9.154;2022-07-05T08:13:41;12.77;;;1.60;;
2023;SDS011;1016;48.770;9.154;2022-07-05T08:16:07;13.30;;;1.60;;
2023;SDS011;1016;48.770;9.154;2022-07-05T08:18:34;12.60;;;1.80;;
2023;SDS011;1016;48.770;9.154;2022-07-05T08:21:19;12.90;;;1.80;;
2023;SDS011;1016;48.770;9.154;2022-07-05T08:24:30;12.73;;;1.77;;
2023;SDS011;1016;48.770;9.154;2022-07-05T08:26:48;14.27;;;1.70;;
2023;SDS011;1016;48.770;9.154;2022-07-05T08:29:14;15.07;;;2.00;;
2023;SDS011;1016;48.770;9.154;2022-07-05T08:31:43;13.77;;;1.60;;
2023;SDS011;1016;48.770;9.154;2022-07-05T08:34:14;14.15;;;1.95;;
2023;SDS011;1016;48.770;9.154;2022-07-05T08:36:40;12.70;;;1.55;;
2023;SDS011;1016;48.770;9.154;2022-07-05T08:39:06;14.23;;;1.80;;
2023;SDS011;1016;48.770;9.154;2022-07-05T08:41:34;14.10;;;1.60;;
2023;SDS011;1016;48.770;9.154;2022-07-05T08:44:02;13.10;;;1.60;;
2023;SDS011;1016;48.770;9.154;2022-07-05T08:46:29;12.82;;;1.85;;
2023;SDS011;1016;48.770;9.154;2022-07-05T08:48:56;13.30;;;1.80;;
2023;SDS011;1016;48.770;9.154;2022-07-05T08:51:24;13.20;;;1.80;;
2023;SDS011;1016;48.770;9.154;2022-07-05T08:53:53;13.15;;;1.40;;
2023;SDS011;1016;48.770;9.154;2022-07-05T08:56:20;12.68;;;1.50;;
2023;SDS011;1016;48.770;9.154;2022-07-05T08:58:46;12.70;;;1.50;;
2023;SDS011;1016;48.770;9.154;2022-07-05T09:01:14;12.52;;;1.50;;
2023;SDS011;1016;48.770;9.154;2022-07-05T09:03:44;12.32;;;1.60;;
2023;SDS011;1016;48.770;9.154;2022-07-05T09:06:13;13.23;;;1.50;;
2023;SDS011;1016;48.770;9.154;2022-07-05T09:08:42;12.90;;;1.80;;
2023;SDS011;1016;48.770;9.154;2022-07-05T09:11:11;13.40;;;1.40;;
2023;SDS011;1016;48.770;9.154;2022-07-05T09:13:40;13.40;;;1.40;;
2023;SDS011;1016;48.770;9.154;2022-07-05T09:16:07;12.60;;;1.60;;
2023;SDS011;1016;48.770;9.154;2022-07-05T09:18:51;12.70;;;1.50;;
2023;SDS011;1016;48.770;9.154;2022-07-05T09:21:19;13.83;;;1.50;;
2023;SDS011;1016;48.770;9.154;2022-07-05T09:23:53;13.80;;;1.83;;
2023;SDS011;1016;48.770;9.154;2022-07-05T09:26:27;14.00;;;2.20;;
2023;SDS011;1016;48.770;9.154;2022-07-05T09:28:56;12.20;;;1.50;;
2023;SDS011;1016;48.770;9.154;2022-07-05T09:31:29;12.52;;;1.70;;
2023;SDS011;1016;48.770;9.154;2022-07-05T09:34:02;14.30;;;1.70;;
2023;SDS011;1016;48.770;9.154;2022-07-05T09:36:46;12.40;;;1.60;;
2023;SDS011;1016;48.770;9.154;2022-07-05T09:39:11;13.27;;;1.80;;
2023;SDS011;1016;48.770;9.154;2022-07-05T09:41:37;13.13;;;1.60;;
2023;SDS011;1016;48.770;9.154;2022-07-05T09:44:03;13.77;;;1.58;;
2023;SDS011;1016;48.770;9.154;2022-07-05T09:46:31;13.20;;;1.50;;
2023;SDS011;1016;48.770;9.154;2022-07-05T09:48:57;12.48;;;1.40;;
2023;SDS011;1016;48.770;9.154;2022-07-05T09:51:23;13.70;;;1.80;;
2023;SDS011;1016;48.770;9.154;2022-07-05T09:53:59;14.77;;;1.58;;
2023;SDS011;1016;48.770;9.154;2022-07-05T09:56:26;13.15;;;1.50;;
2023;SDS011;1016;48.770;9.154;2022-07-05T09:58:54;13.00;;;1.70;;
2023;SDS011;1016;48.770;9.154;2022-07-05T10:03:52;12.90;;;1.60;;
2023;SDS011;1016;48.770;9.154;2022-07-05T10:06:22;12.70;;;1.50;;
2023;SDS011;1016;48.770;9.154;2022-07-05T10:08:49;12.60;;;1.50;;
2023;SDS011;1016;48.770;9.154;2022-07-05T10:11:16;13.82;;;1.30;;
2023;SDS011;1016;48.770;9.154;2022-07-05T10:13:44;13.80;;;1.60;;
2023;SDS011;1016;48.770;9.154;2022-07-05T10:16:17;14.13;;;1.45;;
2023;SDS011;1016;48.770;9.154;2022-07-05T10:18:44;13.20;;;1.50;;
2023;SDS011;1016;48.770;9.154;2022-07-05T10:21:15;13.10;;;1.60;;
2023;SDS011;1016;48.770;9.154;2022-07-05T10:23:45;12.50;;;1.60;;
2023;SDS011;1016;48.770;9.154;2022-07-05T10:26:19;12.70;;;1.40;;
2023;SDS011;1016;48.770;9.154;2022-07-05T10:28:46;11.65;;;1.30;;
2023;SDS011;1016;48.770;9.154;2022-07-05T10:31:15;13.10;;;1.40;;
2023;SDS011;1016;48.770;9.154;2022-07-05T10:33:41;12.27;;;1.40;;
2023;SDS011;1016;48.770;9.154;2022-07-05T10:36:07;12.43;;;1.60;;
2023;SDS011;1016;48.770;9.154;2022-07-05T10:38:39;12.20;;;1.60;;
2023;SDS011;1016;48.770;9.154;2022-07-05T10:41:08;12.57;;;1.60;;
2023;SDS011;1016;48.770;9.154;2022-07-05T10:43:37;12.45;;;1.60;;
2023;SDS011;1016;48.770;9.154;2022-07-05T10:46:02;11.70;;;1.30;;
2023;SDS011;1016;48.770;9.154;2022-07-05T10:48:32;13.27;;;1.40;;
2023;SDS011;1016;48.770;9.154;2022-07-05T11:00:47;12.80;;;1.42;;
2023;SDS011;1016;48.770;9.154;2022-07-05T11:06:03;13.40;;;1.40;;
2023;SDS011;1016;48.770;9.154;2022-07-05T11:08:30;12.50;;;1.50;;
2023;SDS011;1016;48.770;9.154;2022-07-05T11:11:11;13.75;;;1.40;;
2023;SDS011;1016;48.770;9.154;2022-07-05T11:13:37;12.18;;;1.23;;
2023;SDS011;1016;48.770;9.154;2022-07-05T11:16:22;12.05;;;1.30;;
2023;SDS011;1016;48.770;9.154;2022-07-05T11:18:53;14.00;;;1.57;;
2023;SDS011;1016;48.770;9.154;2022-07-05T11:21:32;12.98;;;1.40;;
2023;SDS011;1016;48.770;9.154;2022-07-05T11:26:44;14.18;;;1.50;;
2023;SDS011;1016;48.770;9.154;2022-07-05T11:32:15;12.32;;;1.35;;
2023;SDS011;1016;48.770;9.154;2022-07-05T11:34:49;12.80;;;1.60;;
2023;SDS011;1016;48.770;9.154;2022-07-05T11:39:44;12.65;;;1.40;;
2023;SDS011;1016;48.770;9.154;2022-07-05T11:42:14;12.30;;;1.40;;
2023;SDS011;1016;48.770;9.154;2022-07-05T11:44:46;13.05;;;1.58;;
2023;SDS011;1016;48.770;9.154;2022-07-05T11:47:16;13.65;;;1.60;;
2023;SDS011;1016;48.770;9.154;2022-07-05T11:49:52;13.03;;;1.50;;
2023;SDS011;1016;48.770;9.154;2022-07-05T11:52:24;12.38;;;1.60;;
2023;SDS011;1016;48.770;9.154;2022-07-05T11:54:50;12.25;;;1.35;;
2023;SDS011;1016;48.770;9.154;2022-07-05T11:57:17;12.85;;;1.50;;
2023;SDS011;1016;48.770;9.154;2022-07-05T11:59:44;15.23;;;2.90;;
2023;SDS011;1016;48.770;9.154;2022-07-05T12:02:09;12.47;;;1.90;;
2023;SDS011;1016;48.770;9.154;2022-07-05T12:04:35;12.87;;;1.60;;
2023;SDS011;1016;48.770;9.154;2022-07-05T12:07:01;12.80;;;1.77;;
2023;SDS011;1016;48.770;9.154;2022-07-05T12:09:28;12.40;;;1.50;;
2023;SDS011;1016;48.770;9.154;2022-07-05T12:12:16;12.05;;;1.30;;
2023;SDS011;1016;48.770;9.154;2022-07-05T12:15:05;12.30;;;1.55;;
2023;SDS011;1016;48.770;9.154;2022-07-05T12:17:35;13.88;;;1.65;;
2023;SDS011;1016;48.770;9.154;2022-07-05T12:20:02;12.57;;;1.48;;
2023;SDS011;1016;48.770;9.154;2022-07-05T12:22:32;13.52;;;1.60;;
2023;SDS011;1016;48.770;9.154;2022-07-05T12:24:58;13.38;;;1.40;;
2023;SDS011;1016;48.770;9.154;2022-07-05T12:27:26;13.50;;;1.80;;
2023;SDS011;1016;48.770;9.154;2022-07-05T12:29:52;12.30;;;1.50;;
2023;SDS011;1016;48.770;9.154;2022-07-05T12:32:17;13.10;;;1.63;;
2023;SDS011;1016;48.770;9.154;2022-07-05T12:34:43;12.60;;;1.60;;
2023;SDS011;1016;48.770;9.154;2022-07-05T12:37:09;12.57;;;1.50;;
2023;SDS011;1016;48.770;9.154;2022-07-05T12:39:34;12.30;;;1.60;;
2023;SDS011;1016;48.770;9.154;2022-07-05T12:42:00;13.67;;;1.70;;
2023;SDS011;1016;48.770;9.154;2022-07-05T12:44:26;13.10;;;1.60;;
2023;SDS011;1016;48.770;9.154;2022-07-05T12:46:51;13.40;;;1.60;;
2023;SDS011;1016;48.770;9.154;2022-07-05T12:49:27;12.75;;;1.60;;
2023;SDS011;1016;48.770;9.154;2022-07-05T12:51:53;12.93;;;1.53;;
2023;SDS011;1016;48.770;9.154;2022-07-05T12:54:19;12.60;;;1.50;;
2023;SDS011;1016;48.770;9.154;2022-07-05T12:57:05;13.05;;;1.60;;
2023;SDS011;1016;48.770;9.154;2022-07-05T12:59:56;13.90;;;1.67;;
2023;SDS011;1016;48.770;9.154;2022-07-05T13:02:38;12.80;;;1.60;;
2023;SDS011;1016;48.770;9.154;2022-07-05T13:05:06;13.82;;;1.60;;
2023;SDS011;1016;48.770;9.154;2022-07-05T13:07:40;12.65;;;1.50;;
2023;SDS011;1016;48.770;9.154;2022-07-05T13:10:13;14.57;;;1.92;;
2023;SDS011;1016;48.770;9.154;2022-07-05T13:12:40;12.70;;;1.70;;
2023;SDS011;1016;48.770;9.154;2022-07-05T13:15:09;12.65;;;1.50;;
2023;SDS011;1016;48.770;9.154;2022-07-05T13:17:35;13.35;;;1.60;;
2023;SDS011;1016;48.770;9.154;2022-07-05T13:20:01;13.10;;;1.70;;
2023;SDS011;1016;48.770;9.154;2022-07-05T13:22:28;12.15;;;1.60;;
2023;SDS011;1016;48.770;9.154;2022-07-05T13:24:54;12.60;;;1.60;;
2023;SDS011;1016;48.770;9.154;2022-07-05T13:27:20;12.52;;;1.65;;
2023;SDS011;1016;48.770;9.154;2022-07-05T13:29:45;13.13;;;1.50;;
2023;SDS011;1016;48.770;9.154;2022-07-05T13:32:13;13.00;;;1.70;;
2023;SDS011;1016;48.770;9.154;2022-07-05T13:34:41;15.10;;;1.80;;
2023;SDS011;1016;48.770;9.154;2022-07-05T13:37:07;12.80;;;1.70;;
2023;SDS011;1016;48.770;9.154;2022-07-05T13:39:33;12.00;;;1.60;;
2023;SDS011;1016;48.770;9.154;2022-07-05T13:41:58;13.00;;;1.70;;
2023;SDS011;1016;48.770;9.154;2022-07-05T13:44:24;13.38;;;1.70;;
2023;SDS011;1016;48.770;9.154;2022-07-05T13:46:49;12.40;;;1.60;;
2023;SDS011;1016;48.770;9.154;2022-07-05T13:49:15;14.00;;;1.80;;
2023;SDS011;1016;48.770;9.154;2022-07-05T13:51:41;14.10;;;1.80;;
2023;SDS011;1016;48.770;9.154;2022-07-05T13:54:06;13.27;;;1.70;;
2023;SDS011;1016;48.770;9.154;2022-07-05T13:56:32;15.17;;;2.00;;
2023;SDS011;1016;48.770;9.154;2022-07-05T13:59:00;13.87;;;1.87;;
2023;SDS011;1016;48.770;9.154;2022-07-05T14:01:26;14.40;;;1.60;;
2023;SDS011;1016;48.770;9.154;2022-07-05T14:03:53;12.55;;;1.60;;
2023;SDS011;1016;48.770;9.154;2022-07-05T14:06:20;14.35;;;1.63;;
2023;SDS011;1016;48.770;9.154;2022-07-05T14:08:45;14.52;;;1.63;;
2023;SDS011;1016;48.770;9.154;2022-07-05T14:11:11;12.53;;;1.30;;
2023;SDS011;1016;48.770;9.154;2022-07-05T14:13:37;13.55;;;1.70;;
2023;SDS011;1016;48.770;9.154;2022-07-05T14:16:04;12.70;;;1.77;;
2023;SDS011;1016;48.770;9.154;2022-07-05T14:18:29;11.30;;;1.50;;
2023;SDS011;1016;48.770;9.154;2022-07-05T14:20:55;11.87;;;1.37;;
2023;SDS011;1016;48.770;9.154;2022-07-05T14:23:23;12.43;;;1.60;;
2023;SDS011;1016;48.770;9.154;2022-07-05T14:25:49;11.90;;;1.70;;
2023;SDS011;1016;48.770;9.154;2022-07-05T14:28:15;13.60;;;1.60;;
2023;SDS011;1016;48.770;9.154;2022-07-05T14:30:44;12.03;;;1.60;;
2023;SDS011;1016;48.770;9.154;2022-07-05T14:33:11;12.60;;;1.47;;
2023;SDS011;1016;48.770;9.154;2022-07-05T14:35:38;12.60;;;1.70;;
2023;SDS011;1016;48.770;9.154;2022-07-05T14:38:05;12.90;;;1.73;;
2023;SDS011;1016;48.770;9.154;2022-07-05T14:40:31;13.03;;;1.60;;
2023;SDS011;1016;48.770;9.154;2022-07-05T14:42:57;11.57;;;1.50;;
2023;SDS011;1016;48.770;9.154;2022-07-05T14:45:24;11.93;;;1.80;;
2023;SDS011;1016;48.770;9.154;2022-07-05T14:47:50;11.73;;;1.37;;
2023;SDS011;1016;48.770;9.154;2022-07-05T14:50:16;15.50;;;1.67;;
2023;SDS011;1016;48.770;9.154;2022-07-05T14:52:42;14.03;;;2.27;;
2023;SDS011;1016;48.770;9.154;2022-07-05T14:55:08;12.80;;;2.00;;
2023;SDS011;1016;48.770;9.154;2022-07-05T14:57:34;12.90;;;1.73;;
2023;SDS011;1016;48.770;9.154;2022-07-05T15:00:04;11.23;;;1.70;;
2023;SDS011;1016;48.770;9.154;2022-07-05T15:02:31;11.60;;;1.77;;
2023;SDS011;1016;48.770;9.154;2022-07-05T15:04:56;12.53;;;1.50;;
2023;SDS011;1016;48.770;9.154;2022-07-05T15:07:22;12.93;;;1.70;;
2023;SDS011;1016;48.770;9.154;2022-07-05T15:09:47;12.30;;;1.80;;
2023;SDS011;1016;48.770;9.154;2022-07-05T15:12:13;12.80;;;1.90;;
2023;SDS011;1016;48.770;9.154;2022-07-05T15:14:39;13.00;;;2.00;;
2023;SDS011;1016;48.770;9.154;2022-07-05T15:17:04;12.20;;;2.10;;
2023;SDS011;1016;48.770;9.154;2022-07-05T15:19:30;11.47;;;1.50;;
2023;SDS011;1016;48.770;9.154;2022-07-05T15:21:55;14.47;;;1.97;;
2023;SDS011;1016;48.770;9.154;2022-07-05T15:24:21;11.63;;;1.70;;
2023;SDS011;1016;48.770;9.154;2022-07-05T15:26:47;15.70;;;1.80;;